Grand Junction, CO (81506)

5:43 PM MDT on May 28, 2015 (GMT -0600)
Larkspur Lane | | Change Station
CLOSE
Current Station
Personal Weather Station
Location: Grand Junction, CO
Elevation: 4672 ft
Nearby Weather Stations
Active Advisory: Areal Flood Advisory Active Notice: Public Information Statement

Elev 4672 ft 39.10 °N, 108.56 °W | Updated 4 seconds ago

Scattered Clouds
Scattered Clouds
63.9 °F
Feels Like 63.9 °F
N
1.0
Wind Variable Wind from SW
Gusts 5.0 mph

Today
High -- | Low -- °F
--% Chance of Precip.
Yesterday
High -- | Low -- °F
Precip. -- in
5:52 AM 8:31 PM
Waxing Gibbous, 79% visible
Pressure 30.01 in
Visibility 10.0 miles
Clouds Scattered Clouds 12000 ft
Dew Point 44 °F
Humidity 48%
Rainfall 0.00 in
Snow Depth Not available.
UV 4 out of 12
Pollen 7.30 out of 12
Air Quality Not available.
Flu Activity Sporadic
METAR KGJT 282253Z 25015KT 10SM SCT120 17/07 A3013 RMK AO2 WSHFT 2225 SLP162 VCSH T01670067

More Conditions Fewer Conditions

Pressure 30.01 in
Visibility 10.0 miles
Clouds Scattered Clouds 12000 ft
Dew Point 44 °F
Humidity 48%
Rainfall 0.00 in
Snow Depth Not available.
UV 4 out of 12
Pollen 7.30 out of 12
Air Quality Not available.
Flu Activity Sporadic
METAR KGJT 282253Z 25015KT 10SM SCT120 17/07 A3013 RMK AO2 WSHFT 2225 SLP162 VCSH T01670067

More Conditions Fewer Conditions

10-Day Weather Forecast

Almanac

Astronomy

May. 28, 2015 Rise Set
Actual Time
Civil Twilight
Nautical Twilight
Astronomical Twilight
Moon
Length of Visible Light
Length of Day
Tomorrow will be .
, % of the Moon is Illuminated

Today's Extremes

State Highs State Lows

Community

WunderPhotos

Upload Photos

1,825,094 photos uploaded!

WunderBlogs® & News

Nearby

Air Quality

  Air Quality AQ Index Pollutant
Not available.

Snow Depth

Station Depth Elevation

Earthquake Activity

City Distance Mag. Time & Date
Minimum magnitude displayed is 2.5.

Coastal Water Temperatures

Place Temperature

Stations

Nearby Weather Stations

Station Location Temp. Windchill Dew Point Humidity Wind Precip. Elev Updated Type
                   
Areal Flood Advisory
Statement as of 5:03 PM MDT on May 28, 2015

... The Arroyo and Small Stream Flood Advisory remains in effect until
715 PM MDT for northwestern Mesa and southwestern Garfield
counties...

At 502 PM MDT... Doppler radar indicated heavy rain ending over the
advised area. However... Arroyo and Small Stream flooding is still
possible so the Flood Advisory will remain in effect.

This flooding will remain over mainly rural areas of northwestern
Mesa and southwestern Garfield counties.

Lat... Lon 3960 10866 3923 10885 3924 10893 3932 10904
      3945 10904 3957 10899 3961 10884


Tgr